Time;durP1;ratioP1;P1;durP2;ratioP2;P2;SDS_P1;SDS_P2;PMS_P1;PMS_P2;Temp;Humidity;BMP_temperature;BMP_pressure;BME280_temperature;BME280_humidity;BME280_pressure;Samples;Min_cycle;Max_cycle;Signal;HPM_P1;HPM_P2
2022/10/31 00:01:28;;;;;;;12.35;3.95;;;12.00;99.90;;;;;;5049135;28;20064;-60
2022/10/31 00:03:55;;;;;;;9.25;3.95;;;12.00;99.90;;;;;;5052945;28;20423;-60
2022/10/31 00:06:22;;;;;;;10.40;3.55;;;12.00;99.90;;;;;;5051827;28;20041;-59
2022/10/31 00:08:48;;;;;;;14.73;3.72;;;12.00;99.90;;;;;;5053067;28;20041;-60
2022/10/31 00:11:15;;;;;;;13.88;4.35;;;12.00;99.90;;;;;;5051826;28;20055;-59
2022/10/31 00:13:42;;;;;;;16.90;4.43;;;12.00;99.90;;;;;;5052981;28;20132;-60
2022/10/31 00:16:09;;;;;;;12.77;3.47;;;12.00;99.90;;;;;;5052922;28;20041;-60
2022/10/31 00:18:35;;;;;;;11.07;3.30;;;12.00;99.90;;;;;;5057127;28;20084;-60
2022/10/31 00:21:02;;;;;;;11.38;3.20;;;12.00;99.90;;;;;;5059682;28;20041;-60
2022/10/31 00:23:29;;;;;;;8.50;2.97;;;11.90;99.90;;;;;;5059692;28;20045;-60
2022/10/31 00:25:56;;;;;;;10.82;3.28;;;11.90;99.90;;;;;;5059301;28;20048;-60
2022/10/31 00:28:22;;;;;;;8.52;3.28;;;11.90;99.90;;;;;;5059710;28;20064;-60
2022/10/31 00:30:49;;;;;;;10.45;3.47;;;11.90;99.90;;;;;;5059768;28;20450;-60
2022/10/31 00:33:16;;;;;;;9.40;3.45;;;11.90;99.90;;;;;;5058252;28;20049;-60
2022/10/31 00:35:42;;;;;;;10.45;3.10;;;11.90;99.90;;;;;;5053225;28;20066;-59
2022/10/31 00:38:09;;;;;;;12.60;3.10;;;11.90;99.90;;;;;;5059459;28;20119;-59
2022/10/31 00:40:36;;;;;;;11.18;3.10;;;11.90;99.90;;;;;;5059644;28;20088;-59
2022/10/31 00:43:03;;;;;;;11.48;3.28;;;11.90;99.90;;;;;;5059640;28;20079;-60
2022/10/31 00:45:30;;;;;;;7.95;3.00;;;11.90;99.90;;;;;;5059351;28;20045;-60
2022/10/31 00:47:57;;;;;;;7.88;2.75;;;11.80;99.90;;;;;;5058138;28;20103;-60
2022/10/31 00:50:24;;;;;;;11.40;3.08;;;11.80;99.90;;;;;;5056994;28;20040;-59
2022/10/31 00:52:51;;;;;;;11.38;2.90;;;11.80;99.90;;;;;;5057127;28;20037;-60
2022/10/31 00:55:18;;;;;;;10.57;3.30;;;11.80;99.90;;;;;;5052863;28;20523;-62
2022/10/31 00:57:44;;;;;;;10.13;3.10;;;11.80;99.90;;;;;;5056770;28;20144;-60
2022/10/31 01:00:11;;;;;;;11.23;2.95;;;11.80;99.90;;;;;;5051560;28;20045;-59
2022/10/31 01:02:39;;;;;;;8.75;2.72;;;11.70;99.90;;;;;;5064781;28;20430;-60
2022/10/31 01:05:07;;;;;;;9.48;3.78;;;11.70;99.90;;;;;;5053185;28;20041;-60
2022/10/31 01:07:33;;;;;;;11.32;3.58;;;11.60;99.90;;;;;;5056667;28;20061;-60
2022/10/31 01:10:00;;;;;;;11.70;3.95;;;11.60;99.90;;;;;;5056496;28;20039;-60
2022/10/31 01:12:27;;;;;;;9.77;3.20;;;11.60;99.90;;;;;;5056883;28;20405;-60
2022/10/31 01:14:54;;;;;;;7.00;3.00;;;11.60;99.90;;;;;;5056655;28;20412;-60
2022/10/31 01:17:20;;;;;;;11.73;2.63;;;11.60;99.90;;;;;;5043896;28;20065;-60
2022/10/31 01:19:47;;;;;;;10.55;3.30;;;11.50;99.90;;;;;;5062102;28;20738;-60
2022/10/31 01:22:14;;;;;;;9.07;2.80;;;11.60;99.90;;;;;;5054776;28;20033;-60
2022/10/31 01:24:41;;;;;;;9.82;2.92;;;11.60;99.90;;;;;;5056102;28;20120;-60
2022/10/31 01:27:07;;;;;;;13.00;3.17;;;11.60;99.90;;;;;;5054143;28;20469;-59
2022/10/31 01:29:34;;;;;;;7.22;2.40;;;11.60;99.90;;;;;;5048949;28;20722;-60
2022/10/31 01:32:01;;;;;;;10.95;2.45;;;11.60;99.90;;;;;;5052084;28;20037;-59
2022/10/31 01:34:27;;;;;;;13.82;2.95;;;11.70;99.90;;;;;;5053239;28;20087;-59
2022/10/31 01:36:54;;;;;;;16.10;3.40;;;11.70;99.90;;;;;;5050973;28;20041;-59
2022/10/31 01:39:21;;;;;;;15.70;3.15;;;11.80;99.90;;;;;;5053521;28;20049;-60
2022/10/31 01:41:48;;;;;;;14.40;2.95;;;11.90;99.90;;;;;;5053156;28;20049;-60
2022/10/31 01:44:15;;;;;;;18.75;2.90;;;12.00;99.90;;;;;;5053636;28;20048;-60
2022/10/31 01:46:42;;;;;;;18.33;4.65;;;12.00;99.90;;;;;;5050381;28;20463;-60
2022/10/31 01:49:09;;;;;;;15.90;3.33;;;12.10;99.90;;;;;;5059239;28;20040;-60
2022/10/31 01:51:36;;;;;;;17.67;3.60;;;12.10;99.90;;;;;;5068753;28;20114;-60
2022/10/31 01:54:02;;;;;;;13.95;3.38;;;12.20;99.90;;;;;;5049063;28;20064;-59
2022/10/31 01:56:29;;;;;;;19.60;3.13;;;12.30;99.90;;;;;;5053033;28;20383;-59
2022/10/31 01:58:56;;;;;;;20.20;3.58;;;12.30;99.90;;;;;;5052518;28;20120;-59
2022/10/31 02:01:23;;;;;;;19.60;3.25;;;12.30;99.90;;;;;;5051891;28;20041;-61
2022/10/31 02:03:50;;;;;;;17.58;3.15;;;12.40;99.90;;;;;;5048352;28;20042;-61
2022/10/31 02:06:20;;;;;;;20.88;3.70;;;12.40;99.90;;;;;;5045082;28;20033;-61
2022/10/31 02:08:46;;;;;;;23.23;3.33;;;12.40;99.90;;;;;;5049139;28;20476;-61
2022/10/31 02:11:13;;;;;;;15.55;3.00;;;12.40;99.90;;;;;;5049229;28;20495;-61
2022/10/31 02:13:40;;;;;;;20.42;3.13;;;12.40;99.90;;;;;;5061404;28;20056;-62
2022/10/31 02:16:08;;;;;;;19.05;2.92;;;12.40;99.90;;;;;;5041354;28;20048;-61
2022/10/31 02:18:35;;;;;;;13.73;2.72;;;12.40;99.90;;;;;;5049979;28;20552;-61
2022/10/31 02:21:02;;;;;;;18.15;3.28;;;12.40;99.90;;;;;;5045366;28;20056;-60
2022/10/31 02:23:30;;;;;;;18.38;3.20;;;12.40;99.90;;;;;;5050077;28;20496;-61
2022/10/31 02:25:59;;;;;;;20.27;2.83;;;12.40;99.90;;;;;;5048801;28;20056;-61
2022/10/31 02:28:26;;;;;;;17.00;3.83;;;12.50;99.90;;;;;;5068032;28;20136;-60
2022/10/31 02:30:53;;;;;;;17.50;3.15;;;12.40;99.90;;;;;;5047682;28;20489;-61
2022/10/31 02:33:20;;;;;;;19.30;3.22;;;12.40;99.90;;;;;;5047098;28;20041;-60
2022/10/31 02:35:47;;;;;;;24.00;3.15;;;12.40;99.90;;;;;;5051046;28;20128;-60
2022/10/31 02:38:14;;;;;;;15.20;3.22;;;12.50;99.90;;;;;;5052481;28;20064;-61
2022/10/31 02:40:41;;;;;;;20.77;3.28;;;12.40;99.90;;;;;;5052314;28;20041;-61
2022/10/31 02:43:40;;;;;;;19.15;3.38;;;12.50;99.90;;;;;;5048219;28;20553;-61
2022/10/31 02:46:07;;;;;;;15.77;2.83;;;12.50;99.90;;;;;;5052013;28;20120;-60
2022/10/31 02:48:35;;;;;;;21.50;3.85;;;12.50;99.90;;;;;;5051631;28;20379;-61
2022/10/31 02:51:01;;;;;;;20.88;3.53;;;12.50;99.90;;;;;;5045229;28;20484;-60
2022/10/31 02:53:28;;;;;;;20.85;4.03;;;12.50;99.90;;;;;;5049336;28;20049;-60
2022/10/31 02:55:55;;;;;;;21.90;3.95;;;12.60;99.90;;;;;;5050698;28;20553;-61
2022/10/31 02:58:23;;;;;;;28.02;3.47;;;12.60;99.90;;;;;;5044353;28;20047;-61
2022/10/31 03:00:51;;;;;;;19.30;3.40;;;12.60;99.90;;;;;;5044041;28;20037;-61
2022/10/31 03:03:18;;;;;;;24.30;4.18;;;12.60;99.90;;;;;;5048267;28;20116;-61
2022/10/31 03:05:45;;;;;;;16.55;2.85;;;12.60;99.90;;;;;;5045616;28;20033;-61
2022/10/31 03:08:12;;;;;;;16.38;3.03;;;12.60;99.90;;;;;;5051363;28;20064;-61
2022/10/31 03:10:38;;;;;;;21.70;3.25;;;12.60;99.90;;;;;;5047858;28;20126;-60
2022/10/31 03:13:05;;;;;;;24.58;3.60;;;12.60;99.90;;;;;;5051767;28;20087;-61
2022/10/31 03:15:32;;;;;;;18.67;3.35;;;12.60;99.90;;;;;;5046879;28;20118;-60
2022/10/31 03:17:59;;;;;;;20.98;3.45;;;12.70;99.90;;;;;;5046526;28;20047;-61
2022/10/31 03:20:27;;;;;;;23.60;3.03;;;12.60;99.90;;;;;;5034914;28;20037;-61
2022/10/31 03:22:53;;;;;;;20.42;3.40;;;12.70;99.90;;;;;;5050280;28;20041;-61
2022/10/31 03:25:21;;;;;;;16.85;3.05;;;12.70;99.90;;;;;;5045437;28;20149;-61
2022/10/31 03:27:48;;;;;;;23.42;3.85;;;12.70;99.90;;;;;;5051540;28;20112;-61
2022/10/31 03:30:15;;;;;;;17.23;2.50;;;12.70;99.90;;;;;;5048462;28;20115;-60
2022/10/31 03:32:55;;;;;;;22.70;3.15;;;12.70;99.90;;;;;;5050331;28;20052;-60
2022/10/31 03:35:22;;;;;;;24.02;3.30;;;12.70;99.90;;;;;;5048005;28;20048;-60
2022/10/31 03:37:49;;;;;;;23.27;3.42;;;12.80;99.90;;;;;;5050262;28;20384;-61
2022/10/31 03:40:15;;;;;;;20.98;3.25;;;12.70;99.90;;;;;;5049957;28;20163;-61
2022/10/31 03:42:42;;;;;;;20.83;3.60;;;12.80;99.90;;;;;;5047087;28;20051;-60
2022/10/31 03:45:09;;;;;;;18.30;4.93;;;12.80;99.90;;;;;;5049212;28;20072;-60
2022/10/31 03:47:36;;;;;;;17.35;2.85;;;12.80;99.90;;;;;;5046015;28;20508;-61
2022/10/31 03:50:03;;;;;;;18.48;2.95;;;12.80;99.90;;;;;;5047784;28;20041;-61
2022/10/31 03:52:30;;;;;;;18.55;4.07;;;12.80;99.90;;;;;;5047515;28;20470;-61
2022/10/31 03:54:56;;;;;;;24.13;3.47;;;12.80;99.90;;;;;;5049882;28;20049;-61
2022/10/31 03:57:23;;;;;;;25.65;3.60;;;12.80;99.90;;;;;;5051042;28;20098;-61
2022/10/31 03:59:50;;;;;;;19.05;3.17;;;12.80;99.90;;;;;;5045601;28;20526;-61
2022/10/31 04:02:17;;;;;;;23.90;3.35;;;12.80;99.90;;;;;;5047531;28;20048;-60
2022/10/31 04:04:44;;;;;;;22.48;4.00;;;12.70;99.90;;;;;;5050903;28;20037;-61
2022/10/31 04:07:11;;;;;;;21.10;3.08;;;12.70;99.90;;;;;;5049582;28;20043;-61
2022/10/31 04:09:38;;;;;;;18.52;3.58;;;12.70;99.90;;;;;;5046217;28;20118;-60
2022/10/31 04:12:06;;;;;;;20.25;3.40;;;12.70;99.90;;;;;;5049496;28;20033;-61
2022/10/31 04:14:53;;;;;;;24.73;3.55;;;12.70;99.90;;;;;;5048105;28;20049;-61
2022/10/31 04:17:21;;;;;;;21.30;3.83;;;12.70;99.90;;;;;;5048287;28;20048;-60
2022/10/31 04:19:48;;;;;;;18.88;3.70;;;12.60;99.90;;;;;;5046721;28;20044;-61
2022/10/31 04:22:15;;;;;;;21.35;3.45;;;12.60;99.90;;;;;;5049334;28;20033;-60
2022/10/31 04:24:42;;;;;;;24.67;3.33;;;12.60;99.90;;;;;;5048486;28;20045;-60
2022/10/31 04:27:13;;;;;;;26.52;3.10;;;12.70;99.90;;;;;;5049282;28;20061;-61
2022/10/31 04:29:40;;;;;;;25.25;3.72;;;12.60;99.90;;;;;;5047225;28;20037;-60
2022/10/31 04:32:09;;;;;;;15.55;3.75;;;12.60;99.90;;;;;;5048573;28;20075;-61
2022/10/31 04:34:37;;;;;;;17.70;2.92;;;12.60;99.90;;;;;;5050501;28;20041;-61
2022/10/31 04:37:04;;;;;;;19.67;3.15;;;12.60;99.90;;;;;;5048387;28;20384;-60
2022/10/31 04:39:31;;;;;;;18.75;3.65;;;12.60;99.90;;;;;;5049329;28;20041;-61
2022/10/31 04:42:17;;;;;;;26.52;3.70;;;12.50;99.90;;;;;;5048727;28;20040;-61
2022/10/31 04:44:43;;;;;;;21.10;3.38;;;12.50;99.90;;;;;;5046114;28;20135;-60
2022/10/31 04:47:10;;;;;;;15.68;3.05;;;12.50;99.90;;;;;;5047490;28;20048;-60
2022/10/31 04:49:37;;;;;;;18.98;2.85;;;12.50;99.90;;;;;;5047014;28;20107;-61
2022/10/31 04:52:04;;;;;;;18.55;3.33;;;12.50;99.90;;;;;;5045355;28;20504;-61
2022/10/31 04:54:32;;;;;;;16.85;2.92;;;12.50;99.90;;;;;;5049320;28;20101;-59
2022/10/31 04:57:19;;;;;;;20.67;3.05;;;12.40;99.90;;;;;;5049153;28;20060;-61
2022/10/31 04:59:46;;;;;;;17.33;3.40;;;12.50;99.90;;;;;;5046355;28;20132;-61
2022/10/31 05:02:13;;;;;;;18.30;3.08;;;12.50;99.90;;;;;;5043126;28;20033;-61
2022/10/31 05:04:49;;;;;;;15.93;3.25;;;12.40;99.90;;;;;;5045974;28;20041;-62
2022/10/31 05:07:17;;;;;;;15.82;3.15;;;12.40;99.90;;;;;;5050082;28;20061;-61
2022/10/31 05:09:43;;;;;;;19.20;3.35;;;12.40;99.90;;;;;;5050807;28;20041;-61
2022/10/31 05:12:11;;;;;;;16.83;2.95;;;12.40;99.90;;;;;;5051183;28;20091;-61
2022/10/31 05:15:13;;;;;;;17.83;2.90;;;12.40;99.90;;;;;;5053905;28;20136;-61
2022/10/31 05:17:58;;;;;;;16.07;2.87;;;12.40;99.90;;;;;;5051091;28;20111;-62
2022/10/31 05:20:43;;;;;;;19.25;2.80;;;12.30;99.90;;;;;;5053047;28;20293;-61
2022/10/31 05:23:30;;;;;;;19.73;3.08;;;12.30;99.90;;;;;;5052224;28;20488;-60
2022/10/31 05:25:58;;;;;;;15.05;2.95;;;12.30;99.90;;;;;;5045707;28;20405;-60
2022/10/31 05:28:25;;;;;;;18.88;3.70;;;12.30;99.90;;;;;;5051335;28;20074;-61
2022/10/31 05:30:53;;;;;;;17.65;2.95;;;12.30;99.90;;;;;;5045641;28;20037;-61
2022/10/31 05:33:20;;;;;;;14.63;2.83;;;12.30;99.90;;;;;;5051277;28;20040;-61
2022/10/31 05:35:49;;;;;;;13.85;2.85;;;12.30;99.90;;;;;;5051750;28;20128;-61
2022/10/31 05:38:35;;;;;;;19.98;3.85;;;12.20;99.90;;;;;;5053440;28;20182;-61
2022/10/31 05:41:10;;;;;;;15.25;2.92;;;12.20;99.90;;;;;;5047738;28;20087;-61
2022/10/31 05:43:40;;;;;;;17.85;3.28;;;12.20;99.90;;;;;;5050863;28;20040;-61
2022/10/31 05:46:08;;;;;;;16.05;3.03;;;12.20;99.90;;;;;;5049268;28;20135;-60
2022/10/31 05:48:55;;;;;;;17.20;2.50;;;12.10;99.90;;;;;;5050971;28;20041;-61
2022/10/31 05:51:28;;;;;;;15.63;3.13;;;12.10;99.90;;;;;;5047913;28;20056;-60
2022/10/31 05:53:55;;;;;;;8.80;2.50;;;12.00;99.90;;;;;;5049068;28;20197;-61
2022/10/31 05:56:22;;;;;;;12.57;2.83;;;12.00;99.90;;;;;;5050089;28;20095;-60
2022/10/31 05:58:48;;;;;;;12.93;2.85;;;12.00;99.90;;;;;;5047044;28;20068;-60
2022/10/31 06:01:15;;;;;;;14.25;2.83;;;11.90;99.90;;;;;;5050307;28;20036;-61
2022/10/31 06:03:44;;;;;;;15.55;3.10;;;11.90;99.90;;;;;;5060729;28;20033;-61
2022/10/31 06:06:14;;;;;;;9.30;2.90;;;11.90;99.90;;;;;;5047836;28;20123;-62
2022/10/31 06:08:41;;;;;;;17.08;2.90;;;11.80;99.90;;;;;;5043380;28;20557;-61
2022/10/31 06:11:13;;;;;;;9.95;2.63;;;11.80;99.90;;;;;;5042831;28;20138;-60
2022/10/31 06:13:59;;;;;;;16.73;3.08;;;11.80;99.90;;;;;;5048464;28;20068;-60
2022/10/31 06:16:34;;;;;;;13.15;3.42;;;11.80;99.90;;;;;;5043316;28;20041;-60
2022/10/31 06:19:19;;;;;;;31.42;8.40;;;11.80;99.90;;;;;;5045772;28;20060;-61
2022/10/31 06:21:46;;;;;;;27.67;7.43;;;11.80;99.90;;;;;;5052847;28;20040;-60
2022/10/31 06:24:13;;;;;;;19.90;4.32;;;11.80;99.90;;;;;;5046814;28;20059;-60
2022/10/31 06:27:02;;;;;;;19.92;4.18;;;11.80;99.90;;;;;;5038697;28;20053;-61
2022/10/31 06:29:30;;;;;;;14.05;3.92;;;11.70;99.90;;;;;;5047813;28;20147;-60
2022/10/31 06:32:09;;;;;;;15.35;3.85;;;11.70;99.90;;;;;;5046339;28;20049;-60
2022/10/31 06:34:40;;;;;;;23.77;4.50;;;11.70;99.90;;;;;;5046463;28;20040;-61
2022/10/31 06:37:07;;;;;;;14.20;4.82;;;11.70;99.90;;;;;;5047790;28;20076;-60
2022/10/31 06:39:34;;;;;;;17.48;4.30;;;11.70;99.90;;;;;;5051490;28;20041;-61
2022/10/31 06:42:01;;;;;;;22.15;4.18;;;11.60;99.90;;;;;;5045609;28;20528;-61
2022/10/31 06:44:29;;;;;;;13.68;3.60;;;11.60;99.90;;;;;;5044243;28;20554;-63
2022/10/31 06:46:58;;;;;;;13.25;3.72;;;11.50;99.90;;;;;;5051143;28;20396;-60
2022/10/31 06:49:51;;;;;;;16.30;3.60;;;11.50;99.90;;;;;;5041388;28;20126;-61
2022/10/31 06:52:23;;;;;;;16.92;3.45;;;11.40;99.90;;;;;;5045487;28;20068;-60
2022/10/31 06:54:51;;;;;;;16.17;4.32;;;11.50;99.90;;;;;;5045562;28;20087;-61
2022/10/31 06:57:20;;;;;;;15.88;3.85;;;11.40;99.90;;;;;;5050246;28;20049;-61
2022/10/31 06:59:46;;;;;;;12.88;4.07;;;11.40;99.90;;;;;;5051890;28;20447;-60
2022/10/31 07:02:13;;;;;;;14.40;3.20;;;11.40;99.90;;;;;;5049193;28;20120;-60
2022/10/31 07:04:42;;;;;;;14.35;3.80;;;11.40;99.90;;;;;;5049478;28;20037;-60
2022/10/31 07:07:12;;;;;;;11.10;3.42;;;11.40;99.90;;;;;;5046244;28;20579;-60
2022/10/31 07:09:39;;;;;;;14.32;3.58;;;11.30;99.90;;;;;;5048034;28;20120;-60
2022/10/31 07:12:08;;;;;;;14.50;3.78;;;11.30;99.90;;;;;;5043328;28;20033;-61
2022/10/31 07:14:38;;;;;;;11.82;4.03;;;11.30;99.90;;;;;;5039906;28;20131;-60
2022/10/31 07:17:05;;;;;;;13.23;3.60;;;11.30;99.90;;;;;;5042410;28;20051;-60
2022/10/31 07:19:36;;;;;;;16.40;4.28;;;11.30;99.90;;;;;;5043591;28;20049;-60
2022/10/31 07:22:03;;;;;;;13.27;3.53;;;11.30;99.90;;;;;;5048267;28;20539;-61
2022/10/31 07:24:31;;;;;;;11.68;3.17;;;11.20;99.90;;;;;;5050402;28;20361;-60
2022/10/31 07:27:16;;;;;;;11.20;4.20;;;11.20;99.90;;;;;;5047355;28;20040;-60
2022/10/31 07:29:44;;;;;;;15.25;4.00;;;11.30;99.90;;;;;;5045310;28;20665;-61
2022/10/31 07:32:12;;;;;;;13.45;3.75;;;11.30;99.90;;;;;;5041357;28;20492;-60
2022/10/31 07:34:45;;;;;;;16.13;4.30;;;11.30;99.90;;;;;;5048299;28;20076;-61
2022/10/31 07:37:13;;;;;;;16.40;4.50;;;11.30;99.90;;;;;;5050192;28;20041;-61
2022/10/31 07:39:39;;;;;;;17.73;4.93;;;11.30;99.90;;;;;;5064900;28;20045;-61
2022/10/31 07:42:06;;;;;;;17.27;4.43;;;11.30;99.90;;;;;;5043307;28;20041;-60
2022/10/31 07:44:35;;;;;;;16.65;4.68;;;11.30;99.90;;;;;;5042967;28;20060;-61
2022/10/31 07:47:36;;;;;;;14.75;5.05;;;11.30;99.90;;;;;;5023161;28;20073;-61
2022/10/31 07:50:22;;;;;;;24.23;4.82;;;11.30;99.90;;;;;;5046016;28;20071;-61
2022/10/31 07:53:07;;;;;;;19.65;4.32;;;11.30;99.90;;;;;;5047873;28;20171;-61
2022/10/31 07:55:49;;;;;;;17.42;3.85;;;11.40;99.90;;;;;;5040341;28;20067;-61
2022/10/31 07:58:17;;;;;;;10.98;3.88;;;11.40;99.90;;;;;;5046537;28;20381;-60
2022/10/31 08:00:45;;;;;;;14.15;4.47;;;11.40;99.90;;;;;;5059183;28;20057;-60
2022/10/31 08:03:15;;;;;;;17.80;4.78;;;11.50;99.90;;;;;;5045487;28;20485;-61
2022/10/31 08:06:02;;;;;;;9.25;3.83;;;11.50;99.90;;;;;;5038581;28;20049;-61
2022/10/31 08:08:32;;;;;;;15.20;3.80;;;11.60;99.90;;;;;;5047112;28;20060;-62
2022/10/31 08:11:04;;;;;;;14.00;3.42;;;11.60;99.90;;;;;;5055931;28;20115;-61
2022/10/31 08:13:31;;;;;;;24.30;3.92;;;11.60;99.90;;;;;;5045668;28;20068;-61
2022/10/31 08:16:03;;;;;;;13.40;2.95;;;11.70;99.90;;;;;;5043004;28;20049;-60
2022/10/31 08:18:32;;;;;;;16.25;3.38;;;11.70;99.90;;;;;;5044312;28;20044;-61
2022/10/31 08:20:59;;;;;;;19.95;2.90;;;11.80;99.90;;;;;;5046863;28;20127;-62
2022/10/31 08:23:26;;;;;;;11.23;3.22;;;11.80;99.90;;;;;;5037340;28;20053;-60
2022/10/31 08:25:54;;;;;;;15.43;3.10;;;11.90;99.90;;;;;;5041366;28;20049;-61
2022/10/31 08:28:22;;;;;;;20.50;3.75;;;12.00;99.90;;;;;;5022795;28;20555;-60
2022/10/31 08:30:50;;;;;;;12.38;2.53;;;12.00;99.90;;;;;;5060852;28;20526;-60
2022/10/31 08:33:35;;;;;;;18.60;3.73;;;12.10;99.90;;;;;;5052217;28;20181;-61
2022/10/31 08:36:34;;;;;;;15.10;2.97;;;12.20;99.90;;;;;;5039580;28;20273;-61
2022/10/31 08:39:20;;;;;;;18.58;2.85;;;12.20;99.90;;;;;;5036000;28;20121;-61
2022/10/31 08:41:46;;;;;;;14.07;2.50;;;12.30;99.90;;;;;;5071165;28;20045;-60
2022/10/31 08:44:13;;;;;;;12.30;2.72;;;12.40;99.90;;;;;;5044528;28;20052;-60
2022/10/31 08:46:42;;;;;;;18.48;3.55;;;12.50;99.90;;;;;;5047626;28;20041;-61
2022/10/31 08:49:09;;;;;;;16.20;2.38;;;12.50;99.90;;;;;;5038038;28;20049;-61
2022/10/31 08:51:36;;;;;;;15.88;3.00;;;12.60;99.90;;;;;;5051870;28;20071;-61
2022/10/31 08:54:03;;;;;;;17.00;2.95;;;12.70;99.90;;;;;;5054736;28;20048;-61
2022/10/31 08:56:32;;;;;;;15.70;3.00;;;12.80;99.90;;;;;;5048107;28;20053;-61
2022/10/31 08:59:02;;;;;;;22.05;3.33;;;12.80;99.90;;;;;;5051784;28;20045;-61
2022/10/31 09:01:38;;;;;;;16.60;3.00;;;12.90;99.90;;;;;;5048981;28;20033;-61
2022/10/31 09:04:06;;;;;;;13.73;3.47;;;13.00;99.90;;;;;;5042538;28;20042;-61
2022/10/31 09:06:32;;;;;;;29.02;3.35;;;13.10;99.90;;;;;;5053759;28;20118;-61
2022/10/31 09:08:59;;;;;;;17.80;3.33;;;13.20;99.90;;;;;;5051584;28;20044;-62
2022/10/31 09:11:26;;;;;;;17.08;3.38;;;13.20;99.90;;;;;;5047710;28;20073;-61
2022/10/31 09:14:11;;;;;;;21.23;3.08;;;13.30;99.90;;;;;;5051919;28;20048;-61
2022/10/31 09:16:38;;;;;;;19.05;3.28;;;13.40;99.90;;;;;;5051239;28;20049;-61
2022/10/31 09:19:10;;;;;;;23.02;2.88;;;13.40;99.90;;;;;;5041852;28;20046;-61
2022/10/31 09:21:37;;;;;;;12.25;2.80;;;13.50;99.90;;;;;;5037708;28;20049;-62
2022/10/31 09:24:04;;;;;;;13.73;2.95;;;13.60;99.90;;;;;;5051213;28;20049;-62
2022/10/31 09:26:31;;;;;;;14.57;2.75;;;13.60;99.90;;;;;;5042355;28;20391;-61
2022/10/31 09:29:11;;;;;;;15.70;3.03;;;13.70;99.90;;;;;;5040065;28;20461;-61
2022/10/31 09:31:38;;;;;;;21.35;2.50;;;13.70;99.90;;;;;;5038553;28;20041;-62
2022/10/31 09:34:24;;;;;;;15.95;3.00;;;13.80;99.90;;;;;;5054068;28;20059;-62
2022/10/31 09:37:01;;;;;;;16.80;3.00;;;13.90;99.90;;;;;;5054123;28;20066;-62
2022/10/31 09:39:27;;;;;;;16.20;3.10;;;13.90;99.90;;;;;;5052978;28;20041;-61
2022/10/31 09:42:01;;;;;;;18.50;2.70;;;14.00;99.90;;;;;;5050368;28;20124;-61
2022/10/31 09:44:30;;;;;;;18.02;3.28;;;14.00;99.90;;;;;;5054079;28;20055;-61
2022/10/31 09:46:57;;;;;;;12.10;2.38;;;14.00;99.90;;;;;;5036692;28;20044;-62
2022/10/31 09:49:27;;;;;;;12.30;2.22;;;14.10;99.90;;;;;;5053328;28;20037;-61
2022/10/31 09:51:54;;;;;;;15.15;3.13;;;14.20;99.90;;;;;;5051567;28;20473;-62
2022/10/31 09:54:26;;;;;;;15.90;2.80;;;14.20;99.90;;;;;;5047511;28;20523;-61
2022/10/31 09:56:53;;;;;;;15.52;2.60;;;14.20;99.90;;;;;;5047097;28;20053;-62
2022/10/31 09:59:20;;;;;;;16.95;2.25;;;14.30;99.90;;;;;;5040137;28;20071;-61
2022/10/31 10:01:46;;;;;;;14.82;2.08;;;14.40;99.90;;;;;;5046077;28;20041;-61
2022/10/31 10:04:13;;;;;;;7.85;2.20;;;14.50;99.90;;;;;;5051798;28;20033;-61
2022/10/31 10:07:02;;;;;;;13.63;2.60;;;14.50;99.90;;;;;;5054561;28;20456;-61
2022/10/31 10:09:44;;;;;;;15.50;2.40;;;14.60;99.90;;;;;;5053193;28;20133;-62
2022/10/31 10:12:46;;;;;;;14.77;2.67;;;14.60;99.90;;;;;;5051235;28;20171;-61
2022/10/31 10:15:12;;;;;;;9.05;2.17;;;14.70;99.90;;;;;;5052547;28;20056;-63
2022/10/31 10:17:39;;;;;;;17.13;2.92;;;14.70;99.90;;;;;;5050947;28;20047;-61
2022/10/31 10:20:06;;;;;;;14.52;3.28;;;14.70;99.90;;;;;;5047785;28;20045;-61
2022/10/31 10:22:33;;;;;;;10.68;2.42;;;14.80;99.90;;;;;;5054104;28;20106;-62
2022/10/31 10:24:59;;;;;;;11.35;3.22;;;14.70;99.90;;;;;;5052112;28;20086;-61
2022/10/31 10:27:26;;;;;;;12.15;2.72;;;14.70;99.90;;;;;;5047865;28;20045;-60
2022/10/31 10:29:53;;;;;;;10.60;2.45;;;14.70;99.90;;;;;;5055736;28;20458;-61
2022/10/31 10:32:20;;;;;;;15.90;2.60;;;14.70;99.90;;;;;;5050569;28;20049;-60
2022/10/31 10:34:46;;;;;;;12.65;2.20;;;14.80;99.90;;;;;;5052486;28;20052;-61
2022/10/31 10:37:13;;;;;;;15.07;2.70;;;14.80;99.90;;;;;;5047973;28;20120;-61
2022/10/31 10:39:40;;;;;;;14.50;2.80;;;14.80;99.90;;;;;;5047602;28;20515;-62
2022/10/31 10:47:38;;;;;;;10.60;2.78;;;14.90;99.90;;;;;;5039341;28;20132;-62
2022/10/31 10:50:05;;;;;;;9.80;2.53;;;14.90;99.90;;;;;;5045902;28;20042;-62
2022/10/31 10:52:32;;;;;;;9.70;2.50;;;15.00;99.90;;;;;;5043733;28;20052;-62
2022/10/31 10:55:13;;;;;;;10.77;2.63;;;15.00;99.90;;;;;;5052019;28;20037;-61
2022/10/31 10:57:39;;;;;;;10.60;2.65;;;15.00;99.90;;;;;;5043690;28;20148;-61
2022/10/31 11:00:06;;;;;;;12.18;2.72;;;15.10;99.90;;;;;;5048496;28;20140;-60
2022/10/31 11:02:33;;;;;;;12.98;2.80;;;15.10;99.90;;;;;;5046210;28;20083;-61
2022/10/31 11:04:59;;;;;;;18.33;3.00;;;15.20;99.90;;;;;;5045861;28;20588;-61
2022/10/31 11:07:26;;;;;;;14.82;2.42;;;15.30;99.90;;;;;;5042691;28;20071;-60
2022/10/31 11:09:53;;;;;;;12.55;2.90;;;15.30;99.90;;;;;;5049475;28;20068;-61
2022/10/31 11:12:20;;;;;;;8.10;2.42;;;15.40;99.90;;;;;;5046310;28;20110;-60
2022/10/31 11:14:46;;;;;;;14.23;2.72;;;15.50;99.90;;;;;;5053583;28;20068;-61
2022/10/31 11:17:13;;;;;;;11.48;2.00;;;15.50;99.90;;;;;;5046994;28;20045;-60
2022/10/31 11:19:40;;;;;;;9.25;2.63;;;15.60;99.90;;;;;;5052078;28;20087;-60
2022/10/31 11:22:07;;;;;;;10.52;3.20;;;15.60;99.90;;;;;;5050281;28;20041;-60
2022/10/31 11:24:34;;;;;;;11.48;2.50;;;15.60;99.90;;;;;;5053091;28;20041;-60
2022/10/31 11:27:00;;;;;;;8.52;2.60;;;15.60;99.90;;;;;;5051665;28;20106;-60
2022/10/31 11:29:27;;;;;;;11.20;2.17;;;15.60;99.90;;;;;;5052296;28;20045;-61
2022/10/31 11:31:54;;;;;;;12.07;2.30;;;15.60;99.90;;;;;;5051700;28;20033;-61
2022/10/31 11:34:20;;;;;;;11.05;2.45;;;15.60;99.90;;;;;;5053154;28;20045;-61
2022/10/31 11:36:47;;;;;;;6.75;1.90;;;15.70;99.90;;;;;;5048799;28;20045;-61
2022/10/31 11:39:14;;;;;;;52.78;5.50;;;15.70;99.90;;;;;;5047900;28;20544;-61
2022/10/31 11:41:42;;;;;;;17.92;1.88;;;15.80;99.90;;;;;;5049544;28;20048;-60
2022/10/31 11:44:09;;;;;;;9.70;1.95;;;15.80;99.90;;;;;;5052718;28;20044;-61
2022/10/31 11:46:35;;;;;;;11.38;2.10;;;15.90;99.90;;;;;;5051004;28;20063;-61
2022/10/31 11:49:02;;;;;;;8.65;1.90;;;15.90;99.90;;;;;;5047062;28;20380;-61
2022/10/31 11:51:29;;;;;;;7.25;1.65;;;16.00;99.90;;;;;;5049469;28;20044;-61
2022/10/31 11:53:55;;;;;;;9.77;1.60;;;15.90;99.90;;;;;;5050729;28;20132;-61
2022/10/31 11:56:28;;;;;;;10.70;2.08;;;15.90;99.90;;;;;;5051958;28;20802;-61
2022/10/31 11:58:55;;;;;;;10.23;5.15;;;15.90;99.90;;;;;;5051698;28;20395;-61
2022/10/31 12:01:22;;;;;;;10.63;2.08;;;15.90;99.90;;;;;;5053192;28;20037;-61
2022/10/31 12:03:49;;;;;;;10.88;2.25;;;15.90;99.90;;;;;;5053391;28;20049;-61
2022/10/31 12:06:17;;;;;;;9.25;2.42;;;16.00;99.90;;;;;;5052240;28;20045;-61
2022/10/31 12:08:44;;;;;;;9.43;1.80;;;15.90;99.90;;;;;;5052204;28;20048;-61
2022/10/31 12:11:11;;;;;;;9.98;2.47;;;16.00;99.90;;;;;;5051615;28;20037;-61
2022/10/31 12:13:37;;;;;;;7.38;1.70;;;16.00;99.90;;;;;;5065763;28;20463;-61
2022/10/31 12:16:04;;;;;;;7.43;1.63;;;16.00;99.90;;;;;;5047080;28;20064;-61
2022/10/31 12:18:31;;;;;;;9.80;1.67;;;16.10;99.90;;;;;;5050772;28;20079;-61
2022/10/31 12:20:58;;;;;;;6.78;1.70;;;16.10;99.90;;;;;;5052032;28;20041;-61
2022/10/31 12:23:24;;;;;;;9.93;1.67;;;16.10;99.90;;;;;;5051715;28;20047;-62
2022/10/31 12:25:51;;;;;;;9.55;1.23;;;16.10;99.90;;;;;;5053042;28;20484;-61
2022/10/31 12:28:18;;;;;;;8.70;1.85;;;16.00;99.90;;;;;;5051098;28;20033;-61
2022/10/31 12:30:45;;;;;;;8.88;1.65;;;16.00;99.90;;;;;;5053039;28;20120;-60
2022/10/31 12:33:11;;;;;;;5.90;1.13;;;15.90;99.90;;;;;;5050836;28;20072;-60
2022/10/31 12:35:38;;;;;;;6.45;1.20;;;15.90;99.90;;;;;;5051078;28;20127;-61
2022/10/31 12:38:10;;;;;;;5.75;1.40;;;15.90;99.90;;;;;;5050932;28;20053;-61
2022/10/31 12:40:36;;;;;;;9.50;1.98;;;15.80;99.90;;;;;;5052968;28;20057;-61
2022/10/31 12:43:03;;;;;;;6.10;1.65;;;15.90;99.90;;;;;;5053142;28;20120;-60
2022/10/31 12:45:30;;;;;;;9.10;1.60;;;15.90;99.90;;;;;;5049026;28;20048;-61
2022/10/31 12:47:56;;;;;;;9.75;2.33;;;15.90;99.90;;;;;;5050229;28;20176;-61
2022/10/31 12:50:23;;;;;;;7.63;2.00;;;15.90;99.90;;;;;;5052126;28;20053;-61
2022/10/31 12:52:50;;;;;;;7.57;2.03;;;15.90;99.90;;;;;;5049942;28;20053;-61
2022/10/31 12:55:17;;;;;;;8.90;2.13;;;15.90;99.90;;;;;;5042605;28;20834;-61